createdAt,value
2023-03-12T00:01:41.701Z,99613.41
2023-03-12T00:03:46.345Z,99610.54
2023-03-12T00:05:50.858Z,99605.19
2023-03-12T00:07:55.236Z,99605.34
2023-03-12T00:09:59.704Z,99604.73
2023-03-12T00:12:04.163Z,99601.32
2023-03-12T00:14:08.481Z,99605.28
2023-03-12T00:16:13.093Z,99604.25
2023-03-12T00:18:17.672Z,99601.28
2023-03-12T00:20:22.141Z,99598.03
2023-03-12T00:22:26.581Z,99601.55
2023-03-12T00:24:30.955Z,99601.84
2023-03-12T00:26:35.350Z,99602.56
2023-03-12T00:28:39.840Z,99603.11
2023-03-12T00:30:44.247Z,99609.11
2023-03-12T00:32:48.759Z,99608.33
2023-03-12T00:34:53.314Z,99605.63
2023-03-12T00:36:57.701Z,99600.39
2023-03-12T00:39:02.104Z,99602.06
2023-03-12T00:41:06.744Z,99593.91
2023-03-12T00:43:11.148Z,99590.59
2023-03-12T00:45:15.556Z,99591.63
2023-03-12T00:47:19.942Z,99592.77
2023-03-12T00:49:24.300Z,99592.36
2023-03-12T00:51:28.772Z,99592.8
2023-03-12T00:53:33.126Z,99589.84
2023-03-12T00:55:37.504Z,99593.55
2023-03-12T00:57:41.847Z,99597.05
2023-03-12T00:59:46.184Z,99598.95
2023-03-12T01:01:50.569Z,99591.03
2023-03-12T01:03:54.989Z,99594.36
2023-03-12T01:05:59.553Z,99594.27
2023-03-12T01:08:03.915Z,99597
2023-03-12T01:10:08.228Z,99601.87
2023-03-12T01:12:12.603Z,99602.57
2023-03-12T01:14:16.953Z,99604.64
2023-03-12T01:16:21.396Z,99601.23
2023-03-12T01:18:25.987Z,99607.97
2023-03-12T01:20:30.369Z,99609.5
2023-03-12T01:22:34.756Z,99607.45
2023-03-12T01:24:39.094Z,99606.06
2023-03-12T01:26:43.559Z,99602.88
2023-03-12T01:28:47.992Z,99601.41
2023-03-12T01:30:52.436Z,99598.08
2023-03-12T01:32:56.877Z,99594.19
2023-03-12T01:35:01.242Z,99592.02
2023-03-12T01:37:05.625Z,99592.44
2023-03-12T01:39:10.014Z,99593.73
2023-03-12T01:41:14.390Z,99593.55
2023-03-12T01:43:18.743Z,99595.86
2023-03-12T01:45:23.067Z,99595.53
2023-03-12T01:47:27.499Z,99590.72
2023-03-12T01:49:31.844Z,99600.5
2023-03-12T01:51:36.380Z,99597.43
2023-03-12T01:53:40.819Z,99598.78
2023-03-12T01:55:45.153Z,99603.17
2023-03-12T01:57:49.559Z,99600.03
2023-03-12T01:59:53.889Z,99602.59
2023-03-12T02:01:58.384Z,99604.91
2023-03-12T02:04:02.884Z,99600.91
2023-03-12T02:06:07.480Z,99604.07
2023-03-12T02:08:11.820Z,99610.29
2023-03-12T02:10:16.202Z,99608.42
2023-03-12T02:12:20.639Z,99607.18
2023-03-12T02:14:25.097Z,99606.64
2023-03-12T02:16:29.615Z,99607.19
2023-03-12T02:18:34.160Z,99614.83
2023-03-12T02:20:38.572Z,99608.76
2023-03-12T02:22:42.902Z,99611.44
2023-03-12T02:24:47.226Z,99624.44
2023-03-12T02:26:51.607Z,99615.87
2023-03-12T02:28:55.979Z,99618.89
2023-03-12T02:31:00.427Z,99622.8
2023-03-12T02:33:04.764Z,99622.38
2023-03-12T02:35:09.103Z,99626.28
2023-03-12T02:37:13.504Z,99629.52
2023-03-12T02:39:17.825Z,99630.13
2023-03-12T02:41:22.153Z,99633.8
2023-03-12T02:43:26.541Z,99633.73
2023-03-12T02:45:30.906Z,99627.59
2023-03-12T02:47:35.308Z,99633.27
2023-03-12T02:49:39.637Z,99630.16
2023-03-12T02:51:44.073Z,99631.41
2023-03-12T02:53:48.505Z,99629.45
2023-03-12T02:55:52.842Z,99628.84
2023-03-12T02:57:57.159Z,99632.41
2023-03-12T03:00:01.976Z,99632.81
2023-03-12T03:02:06.603Z,99633.53
2023-03-12T03:04:11.149Z,99633.66
2023-03-12T03:06:15.675Z,99632.81
2023-03-12T03:08:19.983Z,99641.03
2023-03-12T03:10:24.382Z,99641.34
2023-03-12T03:12:28.874Z,99639.34
2023-03-12T03:14:33.274Z,99645.38
2023-03-12T03:16:37.623Z,99644
2023-03-12T03:18:42.202Z,99643.22
2023-03-12T03:20:46.610Z,99644.56
2023-03-12T03:22:50.997Z,99649.95
2023-03-12T03:24:55.360Z,99652.03
2023-03-12T03:26:59.705Z,99652.47
2023-03-12T03:29:04.076Z,99652.14
2023-03-12T03:31:08.612Z,99658.18
2023-03-12T03:33:13.120Z,99663.47
2023-03-12T03:35:17.492Z,99663.17
2023-03-12T03:37:21.832Z,99667
2023-03-12T03:39:26.141Z,99665.8
2023-03-12T03:41:30.505Z,99670
2023-03-12T03:43:45.933Z,99666.72
2023-03-12T03:45:50.472Z,99675.59
2023-03-12T03:47:54.918Z,99670.48
2023-03-12T03:49:59.270Z,99667.5
2023-03-12T03:52:03.612Z,99670.38
2023-03-12T03:54:07.969Z,99682.86
2023-03-12T03:56:12.356Z,99675.64
2023-03-12T03:58:16.676Z,99679.06
2023-03-12T04:00:21.046Z,99678.63
2023-03-12T04:02:25.433Z,99684.05
2023-03-12T04:04:29.792Z,99676.42
2023-03-12T04:06:34.110Z,99677
2023-03-12T04:08:38.602Z,99675.78
2023-03-12T04:10:42.895Z,99677.48
2023-03-12T04:12:47.297Z,99682.13
2023-03-12T04:14:51.664Z,99688.97
2023-03-12T04:16:56.005Z,99685.52
2023-03-12T04:19:00.394Z,99691.27
2023-03-12T04:21:04.728Z,99693.38
2023-03-12T04:23:09.074Z,99695.78
2023-03-12T04:25:13.437Z,99699.54
2023-03-12T04:27:17.747Z,99702.31
2023-03-12T04:29:22.102Z,99702.52
2023-03-12T04:31:26.630Z,99702.19
2023-03-12T04:33:31.054Z,99700.63
2023-03-12T04:35:35.558Z,99703.78
2023-03-12T04:37:40.050Z,99702.77
2023-03-12T04:39:44.363Z,99702.77
2023-03-12T04:41:48.764Z,99715.4
2023-03-12T04:43:53.185Z,99711.73
2023-03-12T04:45:57.520Z,99711.54
2023-03-12T04:48:01.900Z,99712.89
2023-03-12T04:50:06.316Z,99712.79
2023-03-12T04:52:10.689Z,99718.45
2023-03-12T04:54:15.091Z,99722.89
2023-03-12T04:56:19.434Z,99723.7
2023-03-12T04:58:23.814Z,99736.7
2023-03-12T05:00:28.203Z,99733.48
2023-03-12T05:02:32.683Z,99728.14
2023-03-12T05:04:37.081Z,99722.58
2023-03-12T05:06:41.437Z,99730.3
2023-03-12T05:08:46.036Z,99742.05
2023-03-12T05:10:50.491Z,99741.78
2023-03-12T05:12:55.041Z,99739.78
2023-03-12T05:14:59.381Z,99740.73
2023-03-12T05:17:03.696Z,99738.06
2023-03-12T05:19:08.106Z,99750.55
2023-03-12T05:21:12.484Z,99746.93
2023-03-12T05:23:17.109Z,99745.88
2023-03-12T05:25:21.535Z,99744.02
2023-03-12T05:27:25.938Z,99743.38
2023-03-12T05:29:30.303Z,99751.73
2023-03-12T05:31:34.831Z,99742.7
2023-03-12T05:33:39.304Z,99744.52
2023-03-12T05:35:43.841Z,99747.98
2023-03-12T05:37:48.313Z,99751.5
2023-03-12T05:39:52.680Z,99756.17
2023-03-12T05:41:57.037Z,99751.47
2023-03-12T05:44:01.418Z,99755.8
2023-03-12T05:46:05.913Z,99753.8
2023-03-12T05:48:10.403Z,99761.15
2023-03-12T05:50:14.760Z,99764.23
2023-03-12T05:52:19.080Z,99770.13
2023-03-12T05:54:23.429Z,99769.27
2023-03-12T05:56:27.836Z,99773.09
2023-03-12T05:58:32.163Z,99769.84
2023-03-12T06:00:36.518Z,99774.96
2023-03-12T06:02:41.211Z,99777.3
2023-03-12T06:04:45.545Z,99782.24
2023-03-12T06:06:50.039Z,99787.05
2023-03-12T06:08:54.414Z,99784.71
2023-03-12T06:10:58.762Z,99790.94
2023-03-12T06:13:03.301Z,99791.72
2023-03-12T06:15:07.655Z,99793.41
2023-03-12T06:17:12.111Z,99796.36
2023-03-12T06:19:16.488Z,99801.7
2023-03-12T06:21:20.851Z,99801.44
2023-03-12T06:23:25.193Z,99813.48
2023-03-12T06:25:29.562Z,99815.68
2023-03-12T06:27:33.996Z,99822.11
2023-03-12T06:29:38.370Z,99815.95
2023-03-12T06:31:42.909Z,99822.31
2023-03-12T06:33:47.673Z,99824.42
2023-03-12T06:35:52.202Z,99818.02
2023-03-12T06:37:56.648Z,99818.19
2023-03-12T06:40:01.179Z,99815.55
2023-03-12T06:42:05.639Z,99817.11
2023-03-12T06:44:10.082Z,99820.25
2023-03-12T06:46:14.594Z,99826.92
2023-03-12T06:48:18.964Z,99831.42
2023-03-12T06:50:23.330Z,99837.19
2023-03-12T06:52:27.670Z,99837.26
2023-03-12T06:54:32.026Z,99834.38
2023-03-12T06:56:36.384Z,99839.33
2023-03-12T06:58:40.759Z,99837.06
2023-03-12T07:00:45.170Z,99843.3
2023-03-12T07:02:49.521Z,99850.81
2023-03-12T07:04:54.069Z,99846.17
2023-03-12T07:06:58.557Z,99851.59
2023-03-12T07:09:02.906Z,99849.39
2023-03-12T07:11:07.395Z,99850.55
2023-03-12T07:13:11.712Z,99844.59
2023-03-12T07:15:16.051Z,99849.97
2023-03-12T07:17:20.427Z,99858.54
2023-03-12T07:19:24.789Z,99859.35
2023-03-12T07:21:29.130Z,99861.02
2023-03-12T07:23:33.550Z,99862.84
2023-03-12T07:25:38.029Z,99855.5
2023-03-12T07:27:42.378Z,99867.49
2023-03-12T07:29:46.736Z,99868.52
2023-03-12T07:31:51.041Z,99873.73
2023-03-12T07:33:55.763Z,99880.09
2023-03-12T07:36:01.030Z,99881.82
2023-03-12T07:38:05.707Z,99880.41
2023-03-12T07:40:10.248Z,99881.76
2023-03-12T07:42:14.732Z,99881.25
2023-03-12T07:44:19.178Z,99879.66
2023-03-12T07:46:23.873Z,99883.28
2023-03-12T07:48:28.388Z,99881.22
2023-03-12T07:50:32.785Z,99872.56
2023-03-12T07:52:37.394Z,99874.89
2023-03-12T07:54:41.892Z,99878.52
2023-03-12T07:56:47.290Z,99874.03
2023-03-12T07:58:52.836Z,99873.43
2023-03-12T08:00:57.891Z,99876.38
2023-03-12T08:03:02.833Z,99878.89
2023-03-12T08:05:07.935Z,99879.2
2023-03-12T08:07:12.554Z,99882.2
2023-03-12T08:09:17.036Z,99880.38
2023-03-12T08:11:21.376Z,99876.33
2023-03-12T08:13:25.981Z,99879.5
2023-03-12T08:15:30.481Z,99885.75
2023-03-12T08:17:34.850Z,99888.53
2023-03-12T08:19:39.299Z,99892.42
2023-03-12T08:21:44.045Z,99895.75
2023-03-12T08:23:48.755Z,99892.41
2023-03-12T08:25:53.486Z,99889.28
2023-03-12T08:27:57.951Z,99891.58
2023-03-12T08:30:02.474Z,99895.2
2023-03-12T08:32:08.206Z,99905.02
2023-03-12T08:34:12.638Z,99890.38
2023-03-12T08:36:17.095Z,99899.92
2023-03-12T08:38:21.412Z,99890.17
2023-03-12T08:40:25.829Z,99898.34
2023-03-12T08:42:30.372Z,99898.45
2023-03-12T08:44:34.778Z,99895.91
2023-03-12T08:46:39.288Z,99900.91
2023-03-12T08:48:43.750Z,99896.47
2023-03-12T08:50:48.165Z,99900.67
2023-03-12T08:52:52.536Z,99897.87
2023-03-12T08:54:56.963Z,99909.7
2023-03-12T08:57:01.579Z,99916.43
2023-03-12T08:59:05.984Z,99900.8
2023-03-12T09:01:10.467Z,99898.15
2023-03-12T09:03:15.272Z,99903.16
2023-03-12T09:05:19.824Z,99900.66
2023-03-12T09:07:24.247Z,99898.78
2023-03-12T09:09:28.715Z,99903.36
2023-03-12T09:11:33.085Z,99902.05
2023-03-12T09:17:05.855Z,99905.69
2023-03-12T09:19:10.227Z,99907.03
2023-03-12T09:21:14.651Z,99910.12
2023-03-12T09:23:19.075Z,99907.17
2023-03-12T09:25:23.520Z,99910.61
2023-03-12T09:27:27.890Z,99910.08
2023-03-12T09:29:32.257Z,99910.63
2023-03-12T09:31:36.676Z,99906.52
2023-03-12T09:33:41.057Z,99906.8
2023-03-12T09:35:45.479Z,99911.68
2023-03-12T09:37:49.926Z,99910.67
2023-03-12T09:39:54.282Z,99905.98
2023-03-12T09:41:58.673Z,99907.33
2023-03-12T09:44:03.109Z,99905.06
2023-03-12T09:46:07.535Z,99902.95
2023-03-12T09:48:11.978Z,99902.15
2023-03-12T09:50:16.323Z,99902.55
2023-03-12T09:52:20.642Z,99901.83
2023-03-12T09:54:25.018Z,99909.05
2023-03-12T09:56:29.365Z,99902.68
2023-03-12T09:58:33.723Z,99899.91
2023-03-12T10:00:38.197Z,99901.27
2023-03-12T10:02:42.718Z,99897.52
2023-03-12T10:05:00.592Z,99899
2023-03-12T10:07:05.266Z,99904.11
2023-03-12T10:09:09.872Z,99900.18
2023-03-12T10:11:14.272Z,99899.02
2023-03-12T10:13:18.776Z,99902.07
2023-03-12T10:15:23.121Z,99900.88
2023-03-12T10:17:27.483Z,99902.01
2023-03-12T10:19:31.975Z,99908.56
2023-03-12T10:21:36.688Z,99902.97
2023-03-12T10:23:41.085Z,99901.17
2023-03-12T10:25:45.457Z,99902.31
2023-03-12T10:27:50.040Z,99900.13
2023-03-12T10:29:54.522Z,99897.08
2023-03-12T10:31:58.912Z,99904.85
2023-03-12T10:34:03.371Z,99906.8
2023-03-12T10:36:07.863Z,99907.06
2023-03-12T10:38:12.320Z,99912.73
2023-03-12T10:40:16.713Z,99910
2023-03-12T10:42:21.124Z,99905.86
2023-03-12T10:44:25.502Z,99901.3
2023-03-12T10:46:30.679Z,99910.7
2023-03-12T10:48:38.041Z,99906.91
2023-03-12T10:50:42.405Z,99905.08
2023-03-12T10:52:46.784Z,99906.59
2023-03-12T10:54:51.189Z,99916.39
2023-03-12T10:56:55.642Z,99915.02
2023-03-12T10:59:00.007Z,99920.11
2023-03-12T11:01:04.411Z,99908.83
2023-03-12T11:03:08.822Z,99913.77
2023-03-12T11:05:13.203Z,99915.09
2023-03-12T11:07:17.618Z,99903.67
2023-03-12T11:09:22.034Z,99905.73
2023-03-12T11:11:26.380Z,99897.75
2023-03-12T11:13:30.846Z,99890.97
2023-03-12T11:15:35.378Z,99895.95
2023-03-12T11:17:39.752Z,99896.52
2023-03-12T11:19:44.202Z,99890.85
2023-03-12T11:21:48.559Z,99890.16
2023-03-12T11:23:52.887Z,99888.54
2023-03-12T11:25:57.319Z,99888.73
2023-03-12T11:28:01.780Z,99881.93
2023-03-12T11:30:06.538Z,99882.41
2023-03-12T11:32:11.094Z,99881.12
2023-03-12T11:34:15.487Z,99874.1
2023-03-12T11:36:19.884Z,99875.64
2023-03-12T11:38:24.246Z,99876.53
2023-03-12T11:40:28.636Z,99874.77
2023-03-12T11:42:33.122Z,99878.13
2023-03-12T11:44:37.624Z,99870.01
2023-03-12T11:46:42.117Z,99874.88
2023-03-12T11:48:46.750Z,99856.89
2023-03-12T11:50:51.216Z,99858.19
2023-03-12T11:52:55.542Z,99864.72
2023-03-12T11:55:00.037Z,99865.75
2023-03-12T11:57:04.632Z,99868.31
2023-03-12T11:59:09.033Z,99864.7
2023-03-12T12:01:13.515Z,99862.98
2023-03-12T12:03:18.037Z,99859.33
2023-03-12T12:05:22.644Z,99858.95
2023-03-12T12:07:26.940Z,99853.25
2023-03-12T12:09:31.318Z,99856.02
2023-03-12T12:11:35.758Z,99855.02
2023-03-12T12:13:40.098Z,99862.22
2023-03-12T12:15:44.576Z,99854.44
2023-03-12T12:17:49.006Z,99851.71
2023-03-12T12:19:53.310Z,99852.16
2023-03-12T12:21:57.874Z,99852.67
2023-03-12T12:24:02.416Z,99847.13
2023-03-12T12:26:07.249Z,99848.47
2023-03-12T12:28:11.642Z,99850.52
2023-03-12T12:30:16.048Z,99855.52
2023-03-12T12:32:20.504Z,99855.55
2023-03-12T12:34:24.930Z,99843.48
2023-03-12T12:36:29.488Z,99843.73
2023-03-12T12:38:33.828Z,99843.33
2023-03-12T12:40:38.224Z,99847.88
2023-03-12T12:42:42.623Z,99840.19
2023-03-12T12:44:47.241Z,99842.06
2023-03-12T12:46:51.623Z,99831.59
2023-03-12T12:48:56.006Z,99839.08
2023-03-12T12:51:00.525Z,99836.33
2023-03-12T12:53:05.112Z,99827.18
2023-03-12T12:55:09.558Z,99822.92
2023-03-12T12:57:13.979Z,99826.88
2023-03-12T12:59:18.384Z,99830.84
2023-03-12T13:01:23.042Z,99827.13
2023-03-12T13:03:31.221Z,99833.88
2023-03-12T13:05:35.629Z,99831.16
2023-03-12T13:07:39.993Z,99828.63
2023-03-12T13:09:44.473Z,99824.31
2023-03-12T13:11:48.932Z,99823.17
2023-03-12T13:13:53.341Z,99816.25
2023-03-12T13:15:57.902Z,99813.2
2023-03-12T13:18:02.422Z,99811.27
2023-03-12T13:20:07.061Z,99807.69
2023-03-12T13:22:11.452Z,99800.88
2023-03-12T13:24:18.859Z,99801.13
2023-03-12T13:26:23.224Z,99795.19
2023-03-12T13:28:27.686Z,99789.94
2023-03-12T13:30:32.047Z,99792.16
2023-03-12T13:32:36.734Z,99796.95
2023-03-12T13:34:41.422Z,99803.02
2023-03-12T13:36:45.892Z,99798.8
2023-03-12T13:38:50.299Z,99803.81
2023-03-12T13:40:54.653Z,99803.69
2023-03-12T13:42:59.190Z,99809.92
2023-03-12T13:45:03.637Z,99814.3
2023-03-12T13:47:08.039Z,99814.31
2023-03-12T13:49:12.511Z,99815.78
2023-03-12T13:51:16.933Z,99815.62
2023-03-12T13:53:21.261Z,99811.42
2023-03-12T13:55:25.632Z,99808.13
2023-03-12T13:57:30.072Z,99806.02
2023-03-12T13:59:34.534Z,99801.85
2023-03-12T14:01:39.091Z,99799.46
2023-03-12T14:03:43.599Z,99799.56
2023-03-12T14:05:48.063Z,99797.58
2023-03-12T14:07:52.480Z,99800.56
2023-03-12T14:09:56.876Z,99801.94
2023-03-12T14:12:01.461Z,99807.5
2023-03-12T14:14:06.069Z,99801.55
2023-03-12T14:16:10.581Z,99793.28
2023-03-12T14:18:15.070Z,99787.56
2023-03-12T14:20:19.517Z,99788.13
2023-03-12T14:22:24.086Z,99792.89
2023-03-12T14:24:28.565Z,99795.05
2023-03-12T14:26:32.921Z,99790.78
2023-03-12T14:28:37.284Z,99789.44
2023-03-12T14:30:41.681Z,99789.91
2023-03-12T14:32:46.245Z,99790.97
2023-03-12T14:34:50.851Z,99785.64
2023-03-12T14:36:55.289Z,99787.62
2023-03-12T14:38:59.694Z,99793.19
2023-03-12T14:41:04.215Z,99784.92
2023-03-12T14:43:08.579Z,99775.75
2023-03-12T14:45:13.042Z,99780.49
2023-03-12T14:47:17.408Z,99780.3
2023-03-12T14:49:21.917Z,99794.95
2023-03-12T14:51:26.680Z,99790.58
2023-03-12T14:53:31.207Z,99791.2
2023-03-12T14:55:35.674Z,99783.97
2023-03-12T14:57:40.035Z,99779.02
2023-03-12T14:59:44.396Z,99769.11
2023-03-12T15:01:48.886Z,99767.88
2023-03-12T15:03:53.404Z,99765.33
2023-03-12T15:05:57.785Z,99757.45
2023-03-12T15:08:02.189Z,99756.14
2023-03-12T15:10:06.651Z,99752.69
2023-03-12T15:12:10.982Z,99754.3
2023-03-12T15:14:15.410Z,99757.27
2023-03-12T15:16:19.888Z,99755.42
2023-03-12T15:18:24.348Z,99758.76
2023-03-12T15:20:28.793Z,99759.8
2023-03-12T15:22:33.166Z,99757.77
2023-03-12T15:24:37.504Z,99762.59
2023-03-12T15:26:41.896Z,99757.71
2023-03-12T15:28:46.216Z,99751.39
2023-03-12T15:30:50.640Z,99746.38
2023-03-12T15:32:55.502Z,99745.14
2023-03-12T15:35:01.272Z,99747.44
2023-03-12T15:37:06.011Z,99739.9
2023-03-12T15:39:10.516Z,99741.67
2023-03-12T15:41:14.978Z,99747.42
2023-03-12T15:43:19.374Z,99748.79
2023-03-12T15:45:23.945Z,99751.8
2023-03-12T15:47:28.688Z,99747.88
2023-03-12T15:49:33.048Z,99748.43
2023-03-12T15:51:37.743Z,99748.45
2023-03-12T15:53:42.110Z,99750.91
2023-03-12T15:55:46.502Z,99743.72
2023-03-12T15:57:50.932Z,99735.95
2023-03-12T15:59:55.348Z,99718.7
2023-03-12T16:01:59.767Z,99711.36
2023-03-12T16:04:04.221Z,99701.71
2023-03-12T16:06:08.544Z,99697.23
2023-03-12T16:08:12.901Z,99700.84
2023-03-12T16:10:17.287Z,99707.35
2023-03-12T16:12:21.694Z,99703.05
2023-03-12T16:14:26.096Z,99708.31
2023-03-12T16:16:30.631Z,99717.44
2023-03-12T16:18:35.105Z,99732.03
2023-03-12T16:20:39.472Z,99742.38
2023-03-12T16:22:43.825Z,99725.22
2023-03-12T16:24:48.217Z,99706
2023-03-12T16:26:52.633Z,99690.57
2023-03-12T16:28:57.010Z,99699.14
2023-03-12T16:31:01.357Z,99698
2023-03-12T16:33:09.827Z,99696.66
2023-03-12T16:35:14.361Z,99690.42
2023-03-12T16:37:18.700Z,99691.5
2023-03-12T16:39:23.044Z,99692.26
2023-03-12T16:41:27.435Z,99696.81
2023-03-12T16:43:31.790Z,99685.63
2023-03-12T16:45:36.454Z,99681.52
2023-03-12T16:47:41.115Z,99685.5
2023-03-12T16:49:45.510Z,99693.55
2023-03-12T16:51:49.889Z,99701.92
2023-03-12T16:54:11.783Z,99707.38
2023-03-12T16:56:16.497Z,99706.47
2023-03-12T16:58:20.873Z,99699.08
2023-03-12T17:00:25.285Z,99695.06
2023-03-12T17:02:29.626Z,99689.56
2023-03-12T17:04:34.187Z,99690.34
2023-03-12T17:06:38.726Z,99698.23
2023-03-12T17:08:43.082Z,99709.9
2023-03-12T17:10:47.486Z,99707.28
2023-03-12T17:12:52.381Z,99707.42
2023-03-12T17:14:57.423Z,99711.91
2023-03-12T17:17:02.197Z,99713.48
2023-03-12T17:19:06.836Z,99711.73
2023-03-12T17:21:11.203Z,99707.78
2023-03-12T17:23:15.591Z,99704.13
2023-03-12T17:25:20.031Z,99702.67
2023-03-12T17:27:24.412Z,99709.53
2023-03-12T17:29:28.772Z,99710.66
2023-03-12T17:31:33.543Z,99703.95
2023-03-12T17:33:38.045Z,99698.42
2023-03-12T17:35:42.740Z,99700.15
2023-03-12T17:37:47.202Z,99712.48
2023-03-12T17:39:51.540Z,99713.58
2023-03-12T17:41:55.881Z,99712.82
2023-03-12T17:44:00.318Z,99714.53
2023-03-12T17:46:04.861Z,99724.36
2023-03-12T17:48:09.340Z,99727.38
2023-03-12T17:50:13.805Z,99728.79
2023-03-12T17:52:18.211Z,99722.31
2023-03-12T17:54:22.551Z,99725.21
2023-03-12T17:56:26.933Z,99718.91
2023-03-12T17:58:31.302Z,99715.63
2023-03-12T18:00:35.707Z,99710.13
2023-03-12T18:02:40.135Z,99707.84
2023-03-12T18:04:44.615Z,99697.29
2023-03-12T18:06:49.205Z,99696.94
2023-03-12T18:08:53.560Z,99695.65
2023-03-12T18:10:57.990Z,99683.09
2023-03-12T18:13:02.369Z,99689.9
2023-03-12T18:15:06.785Z,99677.11
2023-03-12T18:17:11.153Z,99675.11
2023-03-12T18:19:15.546Z,99683.92
2023-03-12T18:21:19.922Z,99681.32
2023-03-12T18:23:24.290Z,99687.24
2023-03-12T18:25:28.730Z,99685.85
2023-03-12T18:27:33.134Z,99690.77
2023-03-12T18:29:37.613Z,99692.65
2023-03-12T18:31:42.353Z,99689.48
2023-03-12T18:33:46.781Z,99689.16
2023-03-12T18:35:54.508Z,99689.16
2023-03-12T18:37:59.106Z,99681.84
2023-03-12T18:40:03.418Z,99689.27
2023-03-12T18:42:07.846Z,99687.09
2023-03-12T18:44:12.184Z,99681.28
2023-03-12T18:46:16.756Z,99691.84
2023-03-12T18:48:21.278Z,99686.64
2023-03-12T18:50:25.650Z,99677.7
2023-03-12T18:52:30.106Z,99668.7
2023-03-12T18:54:34.535Z,99664.56
2023-03-12T18:56:38.957Z,99661.52
2023-03-12T18:58:43.348Z,99657.94
2023-03-12T19:00:47.694Z,99639.77
2023-03-12T19:02:52.070Z,99627.41
2023-03-12T19:04:57.475Z,99624.14
2023-03-12T19:07:01.820Z,99632.34
2023-03-12T19:09:06.260Z,99625.75
2023-03-12T19:11:10.612Z,99625.66
2023-03-12T19:13:14.944Z,99622.33
2023-03-12T19:15:19.349Z,99621.94
2023-03-12T19:17:23.693Z,99625.47
2023-03-12T19:19:28.081Z,99630.38
2023-03-12T19:21:32.424Z,99622.05
2023-03-12T19:23:36.889Z,99617.89
2023-03-12T19:25:41.425Z,99625.79
2023-03-12T19:27:45.861Z,99615.98
2023-03-12T19:29:50.315Z,99609.44
2023-03-12T19:31:54.965Z,99607.27
2023-03-12T19:33:59.540Z,99603.91
2023-03-12T19:36:03.885Z,99601.25
2023-03-12T19:38:08.241Z,99600.92
2023-03-12T19:40:12.764Z,99606.98
2023-03-12T19:42:17.093Z,99605.44
2023-03-12T19:44:21.456Z,99602.42
2023-03-12T19:46:25.823Z,99604.03
2023-03-12T19:48:30.163Z,99604.91
2023-03-12T19:50:34.557Z,99600.22
2023-03-12T19:52:38.962Z,99601.23
2023-03-12T19:54:54.563Z,99600.92
2023-03-12T19:57:08.544Z,99598.91
2023-03-12T19:59:12.917Z,99598.22
2023-03-12T20:01:17.323Z,99601.34
2023-03-12T20:03:21.997Z,99606.81
2023-03-12T20:05:26.634Z,99606.37
2023-03-12T20:07:31.066Z,99605.1
2023-03-12T20:09:35.496Z,99602.21
2023-03-12T20:11:39.845Z,99605.81
2023-03-12T20:13:44.202Z,99606.33
2023-03-12T20:15:48.717Z,99609.76
2023-03-12T20:17:53.148Z,99609.6
2023-03-12T20:19:57.523Z,99607.15
2023-03-12T20:22:01.923Z,99609.19
2023-03-12T20:24:06.308Z,99606.91
2023-03-12T20:26:10.697Z,99603.95
2023-03-12T20:28:15.119Z,99611.86
2023-03-12T20:30:19.509Z,99607.65
2023-03-12T20:32:24.177Z,99610.2
2023-03-12T20:34:28.605Z,99623.94
2023-03-12T20:36:33.084Z,99617
2023-03-12T20:38:37.454Z,99614.16
2023-03-12T20:40:41.841Z,99613.53
2023-03-12T20:42:46.232Z,99613.95
2023-03-12T20:44:50.606Z,99616.55
2023-03-12T20:46:54.997Z,99615.92
2023-03-12T20:48:59.392Z,99618.84
2023-03-12T20:51:03.806Z,99617.23
2023-03-12T20:53:08.234Z,99619.63
2023-03-12T20:55:12.608Z,99613.45
2023-03-12T20:57:16.997Z,99619.93
2023-03-12T20:59:21.398Z,99611.09
2023-03-12T21:01:26.023Z,99617.44
2023-03-12T21:03:30.713Z,99604.91
2023-03-12T21:05:35.168Z,99606.44
2023-03-12T21:07:39.513Z,99603.36
2023-03-12T21:09:43.872Z,99602.66
2023-03-12T21:11:48.213Z,99596.05
2023-03-12T21:13:52.585Z,99598.7
2023-03-12T21:15:56.995Z,99593.95
2023-03-12T21:18:01.327Z,99596.34
2023-03-12T21:20:07.087Z,99594.63
2023-03-12T21:22:13.217Z,99596.95
2023-03-12T21:24:17.748Z,99598.55
2023-03-12T21:26:22.156Z,99602.67
2023-03-12T21:28:26.568Z,99596.11
2023-03-12T21:30:31.004Z,99597.51
2023-03-12T21:32:35.569Z,99585.54
2023-03-12T21:34:40.092Z,99595.89
2023-03-12T21:36:44.474Z,99597.08
2023-03-12T21:38:48.968Z,99588.52
2023-03-12T21:40:53.438Z,99582.38
2023-03-12T21:42:57.899Z,99576.41
2023-03-12T21:45:02.278Z,99583.7
2023-03-12T21:47:06.594Z,99585.94
2023-03-12T21:49:11.429Z,99591.55
2023-03-12T21:51:15.908Z,99589.84
2023-03-12T21:53:24.994Z,99580.95
2023-03-12T21:55:29.446Z,99584.47
2023-03-12T21:57:33.780Z,99585.17
2023-03-12T21:59:38.137Z,99589.19
2023-03-12T22:01:42.635Z,99583.77
